Terminal Aerodrome Forecast
Issued by NWS Sterling, VA

Current Version | Previous Version | Text Only | Print | Product List | Glossary On
Versions: 1 2 3 4 5 6 7 8 9 10 11 12 13 14 15 16 17 18 19 20 21 22
000
FTUS41 KLWX 052033 AAA
TAFIAD
TAF AMD
KIAD 052033Z 0521/0624 22005KT P6SM VCTS BKN050CB
      TEMPO 0521/0522 3SM SHRA BKN035
     FM052300 VRB04KT P6SM BKN060
     FM060200 00000KT P6SM BKN090
     FM061800 10005KT P6SM BKN100=

USA.gov is the U.S. government's official web portal to all federal, state and local government web resources and services.